Time;durP1;ratioP1;P1;durP2;ratioP2;P2;SDS_P1;SDS_P2;PMS_P1;PMS_P2;Temp;Humidity;BMP_temperature;BMP_pressure;BME280_temperature;BME280_humidity;BME280_pressure;Samples;Min_cycle;Max_cycle;Signal;HPM_P1;HPM_P2
2021/12/22 00:00:24;;;;;;;12.63;5.11;;;;;;;;;;354462;149;865113;-61
2021/12/22 00:01:27;;;;;;;10.73;5.84;;;;;;;;;;354423;149;857481;-62
2021/12/22 00:02:31;;;;;;;11.53;5.43;;;;;;;;;;356468;148;865757;-61
2021/12/22 00:03:32;;;;;;;13.16;5.88;;;;;;;;;;354205;149;858214;-61
2021/12/22 00:04:39;;;;;;;9.46;5.39;;;;;;;;;;354000;150;857403;-61
2021/12/22 00:05:44;;;;;;;11.59;5.56;;;;;;;;;;355855;148;859624;-62
2021/12/22 00:06:41;;;;;;;11.49;5.83;;;;;;;;;;354376;149;866047;-61
2021/12/22 00:07:43;;;;;;;14.15;5.85;;;;;;;;;;355142;150;866048;-62
2021/12/22 00:08:44;;;;;;;11.61;6.06;;;;;;;;;;355395;149;859208;-61
2021/12/22 00:09:46;;;;;;;13.56;5.86;;;;;;;;;;355946;149;865194;-62
2021/12/22 00:10:49;;;;;;;14.51;6.18;;;;;;;;;;356550;151;867034;-61
2021/12/22 00:11:51;;;;;;;11.71;6.01;;;;;;;;;;356157;150;866150;-62
2021/12/22 00:12:52;;;;;;;14.08;5.86;;;;;;;;;;356090;148;857763;-61
2021/12/22 00:13:54;;;;;;;13.07;5.94;;;;;;;;;;355614;149;866429;-61
2021/12/22 00:14:55;;;;;;;12.74;6.75;;;;;;;;;;355197;150;856793;-61
2021/12/22 00:15:57;;;;;;;12.76;6.29;;;;;;;;;;355820;149;865194;-61
2021/12/22 00:16:58;;;;;;;14.03;6.02;;;;;;;;;;354755;150;859030;-61
2021/12/22 00:18:00;;;;;;;14.88;6.74;;;;;;;;;;354584;150;865025;-62
2021/12/22 00:19:01;;;;;;;15.70;6.74;;;;;;;;;;357318;149;865167;-61
2021/12/22 00:20:04;;;;;;;13.73;6.50;;;;;;;;;;356676;148;857414;-61
2021/12/22 00:21:06;;;;;;;14.50;6.09;;;;;;;;;;357122;150;859382;-61
2021/12/22 00:22:07;;;;;;;12.28;6.59;;;;;;;;;;354561;149;858481;-62
2021/12/22 00:23:09;;;;;;;12.31;5.97;;;;;;;;;;355403;149;857348;-62
2021/12/22 00:24:11;;;;;;;14.18;6.52;;;;;;;;;;355214;149;865135;-62
2021/12/22 00:25:13;;;;;;;16.87;6.76;;;;;;;;;;357010;150;857511;-61
2021/12/22 00:26:15;;;;;;;13.50;5.53;;;;;;;;;;356205;149;866938;-61
2021/12/22 00:27:17;;;;;;;17.86;6.35;;;;;;;;;;355402;149;858358;-61
2021/12/22 00:28:19;;;;;;;16.79;7.39;;;;;;;;;;353974;148;859849;-61
2021/12/22 00:29:21;;;;;;;14.69;6.66;;;;;;;;;;357160;148;865117;-61
2021/12/22 00:30:24;;;;;;;14.01;6.75;;;;;;;;;;357140;148;865221;-61
2021/12/22 00:31:26;;;;;;;15.39;6.43;;;;;;;;;;356819;148;857386;-61
2021/12/22 00:32:30;;;;;;;11.59;6.10;;;;;;;;;;358067;149;857446;-62
2021/12/22 00:33:32;;;;;;;14.49;6.72;;;;;;;;;;358924;147;857443;-61
2021/12/22 00:34:34;;;;;;;15.47;6.48;;;;;;;;;;358577;148;860243;-62
2021/12/22 00:35:45;;;;;;;13.89;7.14;;;;;;;;;;358859;148;866593;-61
2021/12/22 00:36:45;;;;;;;14.51;6.25;;;;;;;;;;357288;148;859220;-61
2021/12/22 00:37:46;;;;;;;13.49;6.22;;;;;;;;;;350069;150;857503;-62
2021/12/22 00:38:48;;;;;;;13.83;6.34;;;;;;;;;;358241;148;866008;-61
2021/12/22 00:39:50;;;;;;;12.27;6.01;;;;;;;;;;356092;148;865312;-61
2021/12/22 00:40:52;;;;;;;14.59;5.93;;;;;;;;;;355473;148;867170;-61
2021/12/22 00:41:53;;;;;;;13.08;6.33;;;;;;;;;;360326;148;859745;-61
2021/12/22 00:42:55;;;;;;;12.81;6.44;;;;;;;;;;358089;150;866925;-60
2021/12/22 00:43:57;;;;;;;15.22;5.69;;;;;;;;;;359030;147;865978;-61
2021/12/22 00:44:58;;;;;;;13.78;6.91;;;;;;;;;;357390;148;865049;-61
2021/12/22 00:46:00;;;;;;;16.75;6.28;;;;;;;;;;357491;148;866913;-61
2021/12/22 00:47:01;;;;;;;15.42;6.86;;;;;;;;;;357120;148;866195;-61
2021/12/22 00:48:04;;;;;;;17.08;6.75;;;;;;;;;;356508;148;858470;-61
2021/12/22 00:49:05;;;;;;;13.51;6.46;;;;;;;;;;359793;148;865052;-61
2021/12/22 00:50:08;;;;;;;13.59;6.11;;;;;;;;;;358801;148;859053;-61
2021/12/22 00:51:09;;;;;;;14.37;6.46;;;;;;;;;;357782;148;859079;-62
2021/12/22 00:52:11;;;;;;;13.64;6.73;;;;;;;;;;361768;148;859332;-62
2021/12/22 00:53:12;;;;;;;19.61;6.91;;;;;;;;;;353725;148;865314;-60
2021/12/22 00:54:14;;;;;;;11.06;6.10;;;;;;;;;;358015;148;865163;-62
2021/12/22 00:55:18;;;;;;;14.44;6.49;;;;;;;;;;356565;148;865101;-62
2021/12/22 00:56:20;;;;;;;13.99;6.63;;;;;;;;;;358282;148;865167;-61
2021/12/22 00:57:22;;;;;;;14.51;6.56;;;;;;;;;;359324;147;857440;-61
2021/12/22 00:58:23;;;;;;;15.61;5.63;;;;;;;;;;357063;148;865234;-62
2021/12/22 00:59:25;;;;;;;17.39;7.19;;;;;;;;;;358064;148;865994;-61
2021/12/22 01:00:28;;;;;;;11.57;5.78;;;;;;;;;;358552;148;858697;-62
2021/12/22 01:01:30;;;;;;;14.33;6.61;;;;;;;;;;356987;148;857386;-61
2021/12/22 01:13:12;;;;;;;10.64;5.28;;;;;;;;;;372837;141;867937;-60
2021/12/22 01:14:13;;;;;;;15.17;6.65;;;;;;;;;;364775;147;857454;-60
2021/12/22 01:15:15;;;;;;;14.24;6.19;;;;;;;;;;364135;146;866939;-60
2021/12/22 01:16:17;;;;;;;13.41;6.19;;;;;;;;;;363336;147;866045;-61
2021/12/22 01:17:18;;;;;;;14.42;6.36;;;;;;;;;;361210;147;865621;-61
2021/12/22 01:18:29;;;;;;;13.06;6.90;;;;;;;;;;361979;146;865015;-61
2021/12/22 01:19:32;;;;;;;12.92;6.46;;;;;;;;;;361078;146;865185;-61
2021/12/22 01:20:32;;;;;;;14.26;6.95;;;;;;;;;;364000;146;859936;-60
2021/12/22 01:21:48;;;;;;;14.58;6.28;;;;;;;;;;365449;147;858861;-60
2021/12/22 01:24:01;;;;;;;10.34;6.28;;;;;;;;;;352108;150;857492;-60
2021/12/22 01:25:02;;;;;;;11.98;5.87;;;;;;;;;;360889;147;865216;-60
2021/12/22 01:26:05;;;;;;;13.96;6.37;;;;;;;;;;363432;147;857533;-61
2021/12/22 01:27:09;;;;;;;14.60;6.61;;;;;;;;;;364777;147;857449;-60
2021/12/22 01:28:11;;;;;;;10.74;6.28;;;;;;;;;;364081;147;859971;-63
2021/12/22 01:29:13;;;;;;;13.51;6.54;;;;;;;;;;363521;146;858987;-60
2021/12/22 01:30:19;;;;;;;15.44;6.63;;;;;;;;;;362616;146;857410;-61
2021/12/22 01:31:21;;;;;;;14.32;6.56;;;;;;;;;;365441;147;859128;-61
2021/12/22 01:32:24;;;;;;;16.19;6.91;;;;;;;;;;365810;146;857508;-61
2021/12/22 01:33:26;;;;;;;13.09;6.26;;;;;;;;;;363053;146;865596;-63
2021/12/22 01:34:27;;;;;;;12.91;6.83;;;;;;;;;;364140;146;859131;-60
2021/12/22 01:35:30;;;;;;;14.49;6.68;;;;;;;;;;363005;146;859124;-62
2021/12/22 01:36:32;;;;;;;15.67;6.76;;;;;;;;;;364914;146;859681;-62
2021/12/22 01:37:33;;;;;;;11.98;6.10;;;;;;;;;;362956;146;857521;-62
2021/12/22 01:38:35;;;;;;;15.79;6.98;;;;;;;;;;365453;147;865493;-62
2021/12/22 01:39:36;;;;;;;16.09;7.19;;;;;;;;;;364437;145;865590;-62
2021/12/22 01:40:40;;;;;;;12.76;6.48;;;;;;;;;;363208;146;865567;-62
2021/12/22 01:41:42;;;;;;;15.54;6.41;;;;;;;;;;365059;145;866089;-62
2021/12/22 01:42:44;;;;;;;12.54;7.14;;;;;;;;;;364268;146;865161;-60
2021/12/22 01:43:47;;;;;;;13.63;6.35;;;;;;;;;;365537;145;865185;-60
2021/12/22 01:45:24;;;;;;;14.52;6.09;;;;;;;;;;363297;145;859344;-61
2021/12/22 01:46:31;;;;;;;14.96;6.79;;;;;;;;;;363631;145;858212;-60
2021/12/22 01:49:59;;;;;;;;;;;;;;;;;;363613;146;863699;-61
2021/12/22 01:51:04;;;;;;;12.23;5.61;;;;;;;;;;362812;146;858325;-61
2021/12/22 01:52:06;;;;;;;14.97;6.09;;;;;;;;;;363348;147;857342;-61
2021/12/22 01:53:22;;;;;;;10.99;5.63;;;;;;;;;;363875;145;857406;-61
2021/12/22 01:54:29;;;;;;;15.44;6.03;;;;;;;;;;362583;145;858755;-60
2021/12/22 01:55:34;;;;;;;14.18;6.37;;;;;;;;;;364012;146;857382;-61
2021/12/22 01:56:35;;;;;;;16.12;6.52;;;;;;;;;;365005;146;857351;-61
2021/12/22 01:57:39;;;;;;;10.06;5.91;;;;;;;;;;364410;146;859669;-61
2021/12/22 01:58:42;;;;;;;12.34;5.99;;;;;;;;;;362932;145;865144;-61
2021/12/22 01:59:44;;;;;;;11.11;5.41;;;;;;;;;;364557;146;865024;-61
2021/12/22 02:00:45;;;;;;;13.51;6.13;;;;;;;;;;362451;145;857511;-61
2021/12/22 02:01:47;;;;;;;14.14;6.82;;;;;;;;;;364664;145;859151;-61
2021/12/22 02:02:49;;;;;;;12.61;5.79;;;;;;;;;;364456;146;857488;-60
2021/12/22 02:03:51;;;;;;;14.41;6.24;;;;;;;;;;365598;146;857538;-61
2021/12/22 02:04:52;;;;;;;17.20;6.40;;;;;;;;;;364619;145;859441;-61
2021/12/22 02:05:55;;;;;;;10.62;5.61;;;;;;;;;;365632;145;865695;-61
2021/12/22 02:06:57;;;;;;;14.66;6.46;;;;;;;;;;365553;146;858810;-61
2021/12/22 02:08:01;;;;;;;10.93;5.35;;;;;;;;;;363775;146;865684;-60
2021/12/22 02:09:02;;;;;;;11.81;6.23;;;;;;;;;;365321;146;859414;-60
2021/12/22 02:10:48;;;;;;;14.27;6.33;;;;;;;;;;365097;146;857365;-61
2021/12/22 02:11:15;;;;;;;13.61;6.24;;;;;;;;;;350946;146;858509;-61
2021/12/22 02:12:16;;;;;;;11.30;5.57;;;;;;;;;;361019;146;857534;-62
2021/12/22 02:13:24;;;;;;;12.09;5.91;;;;;;;;;;362137;145;857300;-61
2021/12/22 02:14:22;;;;;;;10.66;5.81;;;;;;;;;;363369;146;866412;-61
2021/12/22 02:15:23;;;;;;;10.68;6.14;;;;;;;;;;363369;145;861343;-61
2021/12/22 02:16:29;;;;;;;22.68;6.10;;;;;;;;;;363127;145;856392;-62
2021/12/22 02:17:30;;;;;;;11.93;6.07;;;;;;;;;;364894;145;857994;-61
2021/12/22 02:18:32;;;;;;;11.57;5.70;;;;;;;;;;363670;146;866926;-61
2021/12/22 02:19:36;;;;;;;13.18;6.15;;;;;;;;;;363059;146;868500;-61
2021/12/22 02:20:37;;;;;;;10.63;6.21;;;;;;;;;;362086;145;866699;-61
2021/12/22 02:21:48;;;;;;;16.71;6.07;;;;;;;;;;363190;146;860557;-61
2021/12/22 02:22:44;;;;;;;16.49;6.15;;;;;;;;;;363217;146;866864;-61
2021/12/22 02:23:46;;;;;;;15.35;6.69;;;;;;;;;;363461;146;857682;-61
2021/12/22 02:24:49;;;;;;;14.43;5.95;;;;;;;;;;364588;146;857572;-61
2021/12/22 02:25:56;;;;;;;11.29;5.87;;;;;;;;;;362549;146;857703;-61
2021/12/22 02:27:03;;;;;;;14.43;7.04;;;;;;;;;;364917;146;865634;-61
2021/12/22 02:27:59;;;;;;;13.90;7.00;;;;;;;;;;365714;146;865199;-60
2021/12/22 02:29:05;;;;;;;16.07;7.39;;;;;;;;;;363522;146;865889;-60
2021/12/22 02:30:06;;;;;;;13.22;6.12;;;;;;;;;;363679;146;857379;-60
2021/12/22 02:31:13;;;;;;;14.25;6.36;;;;;;;;;;362460;145;857441;-61
2021/12/22 02:32:26;;;;;;;16.32;7.21;;;;;;;;;;362970;146;860073;-60
2021/12/22 02:33:33;;;;;;;15.28;6.93;;;;;;;;;;362867;145;865204;-60
2021/12/22 02:34:28;;;;;;;13.71;6.46;;;;;;;;;;363828;146;856928;-61
2021/12/22 02:35:54;;;;;;;13.72;6.61;;;;;;;;;;360849;146;857194;-61
2021/12/22 02:36:48;;;;;;;10.32;5.69;;;;;;;;;;362927;146;859158;-62
2021/12/22 02:37:50;;;;;;;14.69;6.01;;;;;;;-11.79;100.00;61006.96;365487;146;859248;-61
2021/12/22 02:38:53;;;;;;;13.06;6.05;;;;;;;;;;363748;145;866891;-61
2021/12/22 02:40:08;;;;;;;16.82;6.72;;;;;;;;;;363301;145;859077;-61
2021/12/22 02:41:01;;;;;;;13.06;6.94;;;;;;;;;;361983;147;858962;-61
2021/12/22 02:42:03;;;;;;;15.60;6.15;;;;;;;;;;362768;147;858260;-61
2021/12/22 02:43:05;;;;;;;10.67;6.00;;;;;;;;;;362214;147;865142;-60
2021/12/22 02:44:09;;;;;;;13.03;6.11;;;;;;;;;;361404;146;858519;-60
2021/12/22 02:45:11;;;;;;;12.82;6.13;;;;;;;;;;363311;145;857450;-60
2021/12/22 02:46:17;;;;;;;14.85;5.96;;;;;;;;;;364527;145;858613;-60
2021/12/22 02:47:20;;;;;;;13.62;6.30;;;;;;;-11.83;100.00;61005.12;363159;146;858160;-60
2021/12/22 02:48:25;;;;;;;15.58;5.78;;;;;;;;;;363155;147;857367;-61
2021/12/22 02:49:26;;;;;;;11.99;5.76;;;;;;;;;;362898;146;859131;-61
2021/12/22 02:50:28;;;;;;;12.30;5.99;;;;;;;;;;362311;145;857353;-60
2021/12/22 02:51:30;;;;;;;13.53;5.74;;;;;;;;;;363781;146;859726;-60
2021/12/22 02:52:42;;;;;;;12.90;6.03;;;;;;;;;;365244;145;865807;-60
2021/12/22 02:53:50;;;;;;;11.47;5.79;;;;;;;;;;364785;146;859171;-61
2021/12/22 02:54:52;;;;;;;11.66;5.43;;;;;;;;;;360568;146;857362;-60
2021/12/22 02:56:00;;;;;;;16.57;6.14;;;;;;;;;;362741;147;857850;-60
2021/12/22 02:57:07;;;;;;;12.44;6.19;;;;;;;;;;362261;146;857471;-60
2021/12/22 02:58:03;;;;;;;12.60;5.69;;;;;;;;;;363027;145;858636;-61
2021/12/22 03:00:47;;;;;;;12.30;5.64;;;;;;;;;;364256;146;858445;-62
2021/12/22 03:04:09;;;;;;;11.43;5.63;;;;;;;;;;341821;155;858809;-61
2021/12/22 03:05:10;;;;;;;13.69;6.65;;;;;;;;;;341739;156;857528;-61
2021/12/22 03:06:15;;;;;;;13.47;6.26;;;;;;;;;;358824;146;857375;-61
2021/12/22 03:07:17;;;;;;;12.23;6.17;;;;;;;;;;361455;146;858075;-61
2021/12/22 03:08:19;;;;;;;9.95;5.74;;;;;;;;;;362357;146;857537;-61
2021/12/22 03:09:21;;;;;;;12.59;6.26;;;;;;;;;;363481;147;866447;-61
2021/12/22 03:10:23;;;;;;;14.72;6.57;;;;;;;;;;364668;146;865058;-62
2021/12/22 03:11:24;;;;;;;11.86;6.00;;;;;;;;;;363558;146;858043;-60
2021/12/22 03:12:27;;;;;;;9.38;4.56;;;;;;;;;;361750;146;858997;-61
2021/12/22 03:13:31;;;;;;;10.48;5.61;;;;;;;;;;363097;146;865724;-61
2021/12/22 03:14:32;;;;;;;11.56;5.43;;;;;;;;;;363151;146;858963;-60
2021/12/22 03:15:34;;;;;;;14.42;6.59;;;;;;;;;;361224;145;865078;-61
2021/12/22 03:16:36;;;;;;;11.09;5.80;;;;;;;;;;360300;146;865639;-61
2021/12/22 03:17:37;;;;;;;11.15;5.96;;;;;;;;;;364516;146;857329;-61
2021/12/22 03:18:39;;;;;;;12.45;5.79;;;;;;;;;;363817;146;857316;-63
2021/12/22 03:19:41;;;;;;;9.11;5.09;;;;;;;;;;363219;146;857540;-61
2021/12/22 03:20:49;;;;;;;14.14;5.76;;;;;;;;;;362801;146;865979;-60
2021/12/22 03:21:48;;;;;;;13.72;5.57;;;;;;;;;;361719;146;865204;-61
2021/12/22 03:22:50;;;;;;;12.83;6.07;;;;;;;;;;363461;146;858906;-60
2021/12/22 03:23:53;;;;;;;12.49;4.87;;;;;;;;;;362825;145;857415;-61
2021/12/22 03:24:55;;;;;;;12.85;6.47;;;;;;;;;;362783;146;857560;-61
2021/12/22 03:25:58;;;;;;;11.42;5.59;;;;;;;;;;365434;145;857432;-61
2021/12/22 03:27:02;;;;;;;12.56;6.37;;;;;;;;;;364413;146;865059;-61
2021/12/22 03:28:04;;;;;;;11.24;5.95;;;;;;;;;;365074;146;867156;-60
2021/12/22 03:29:05;;;;;;;13.73;5.39;;;;;;;;;;362994;146;866799;-60
2021/12/22 03:30:08;;;;;;;11.27;5.59;;;;;;;;;;364118;145;857368;-59
2021/12/22 03:31:09;;;;;;;8.79;5.14;;;;;;;;;;365712;146;857437;-60
2021/12/22 03:32:11;;;;;;;9.49;4.89;;;;;;;;;;363342;145;858270;-60
2021/12/22 03:33:13;;;;;;;10.39;4.97;;;;;;;;;;365776;146;865973;-61
2021/12/22 03:34:14;;;;;;;11.56;5.33;;;;;;;;;;364282;145;858344;-61
2021/12/22 03:35:19;;;;;;;12.38;5.88;;;;;;;;;;364695;146;867580;-61
2021/12/22 03:36:19;;;;;;;10.76;5.47;;;;;;;;;;365061;146;865188;-61
2021/12/22 03:37:21;;;;;;;14.01;5.64;;;;;;;;;;364318;147;865173;-64
2021/12/22 03:38:23;;;;;;;9.62;5.17;;;;;;;;;;361721;146;865360;-60
2021/12/22 03:39:24;;;;;;;9.61;5.24;;;;;;;;;;361539;146;865223;-61
2021/12/22 03:40:26;;;;;;;10.76;5.68;;;;;;;;;;364425;145;865280;-61
2021/12/22 03:41:28;;;;;;;11.62;5.80;;;;;;;;;;363578;146;857964;-60
2021/12/22 03:42:29;;;;;;;10.13;5.16;;;;;;;;;;361821;146;866502;-60
2021/12/22 03:43:31;;;;;;;9.74;4.84;;;;;;;;;;363618;145;865975;-60
2021/12/22 03:44:33;;;;;;;9.76;5.01;;;;;;;;;;365495;145;866683;-61
2021/12/22 03:45:34;;;;;;;10.54;5.01;;;;;;;;;;363399;146;865181;-60
2021/12/22 03:46:36;;;;;;;9.04;4.84;;;;;;;;;;366288;145;865122;-60
2021/12/22 03:47:37;;;;;;;10.63;4.08;;;;;;;;;;361921;146;866937;-60
2021/12/22 03:48:39;;;;;;;9.66;5.09;;;;;;;;;;363752;146;865605;-60
2021/12/22 03:49:41;;;;;;;18.97;5.60;;;;;;;;;;365000;145;865218;-61
2021/12/22 03:50:43;;;;;;;10.49;5.53;;;;;;;;;;362794;145;865600;-61
2021/12/22 03:51:44;;;;;;;9.88;5.21;;;;;;;;;;366552;146;866668;-61
2021/12/22 03:52:47;;;;;;;13.99;5.99;;;;;;;;;;363641;145;860055;-61
2021/12/22 03:53:49;;;;;;;8.27;4.86;;;;;;;;;;362185;146;865186;-61
2021/12/22 03:54:58;;;;;;;15.99;6.29;;;;;;;;;;363924;146;857409;-61
2021/12/22 03:55:57;;;;;;;15.77;5.89;;;;;;;;;;364483;146;865363;-60
2021/12/22 03:56:59;;;;;;;11.21;5.56;;;;;;;;;;361644;145;859803;-60
2021/12/22 03:58:00;;;;;;;10.57;5.25;;;;;;;;;;365360;146;857523;-61
2021/12/22 03:59:02;;;;;;;11.98;6.22;;;;;;;;;;363623;145;865134;-60
2021/12/22 04:00:05;;;;;;;8.80;4.15;;;;;;;;;;362614;146;857523;-60
2021/12/22 04:01:07;;;;;;;11.70;5.67;;;;;;;;;;366709;145;857807;-60
2021/12/22 04:02:08;;;;;;;8.51;4.74;;;;;;;;;;363960;146;860014;-61
2021/12/22 04:03:16;;;;;;;14.19;5.50;;;;;;;;;;362453;146;864921;-60
2021/12/22 04:04:17;;;;;;;8.79;4.36;;;;;;;;;;363169;146;863934;-61
2021/12/22 04:05:18;;;;;;;10.19;5.39;;;;;;;;;;364397;146;856730;-61
2021/12/22 04:06:20;;;;;;;12.91;5.58;;;;;;;;;;363008;146;864556;-60
2021/12/22 04:07:22;;;;;;;8.13;4.49;;;;;;;;;;361943;146;856422;-63
2021/12/22 04:08:23;;;;;;;11.05;4.71;;;;;;;;;;365704;146;863875;-61
2021/12/22 04:09:27;;;;;;;9.95;4.62;;;;;;;;;;360742;146;864113;-61
2021/12/22 04:10:28;;;;;;;11.39;5.12;;;;;;;;;;362467;145;864409;-61
2021/12/22 04:11:30;;;;;;;7.59;5.01;;;;;;;;;;364737;146;856485;-61
2021/12/22 04:12:32;;;;;;;10.91;5.32;;;;;;;;;;364623;145;863768;-61
2021/12/22 04:13:33;;;;;;;10.25;4.86;;;;;;;;;;364004;145;864613;-61
2021/12/22 04:14:35;;;;;;;11.86;5.23;;;;;;;;;;364260;145;865085;-61
2021/12/22 04:15:37;;;;;;;9.86;4.78;;;;;;;;;;364067;147;865159;-61
2021/12/22 04:16:38;;;;;;;8.01;4.36;;;;;;;;;;355291;147;858776;-61
2021/12/22 04:17:40;;;;;;;13.98;4.51;;;;;;;;;;359966;147;864865;-61
2021/12/22 04:18:41;;;;;;;9.82;4.86;;;;;;;;;;361380;146;866931;-61
2021/12/22 04:19:43;;;;;;;9.72;5.44;;;;;;;;;;364837;147;866970;-60
2021/12/22 04:20:45;;;;;;;11.36;5.21;;;;;;;;;;364574;145;865267;-62
2021/12/22 04:21:48;;;;;;;9.97;4.87;;;;;;;;;;362334;146;866024;-62
2021/12/22 04:22:50;;;;;;;9.99;5.01;;;;;;;;;;360538;146;857587;-61
2021/12/22 04:23:52;;;;;;;8.91;4.35;;;;;;;;;;366009;145;859411;-61
2021/12/22 04:24:54;;;;;;;9.66;4.93;;;;;;;;;;362312;145;859495;-61
2021/12/22 04:25:56;;;;;;;11.64;5.24;;;;;;;;;;361846;146;864230;-61
2021/12/22 04:26:58;;;;;;;7.03;4.59;;;;;;;;;;363731;146;865180;-59
2021/12/22 04:28:05;;;;;;;7.89;4.85;;;;;;;;;;362768;145;857378;-59
2021/12/22 04:29:06;;;;;;;8.67;4.59;;;;;;;;;;362443;146;865759;-60
2021/12/22 04:30:09;;;;;;;9.97;5.37;;;;;;;;;;363409;147;857438;-60
2021/12/22 04:31:11;;;;;;;11.21;5.03;;;;;;;;;;364474;145;860441;-60
2021/12/22 04:32:12;;;;;;;8.74;5.33;;;;;;;;;;363824;145;858839;-60
2021/12/22 04:33:14;;;;;;;11.01;5.35;;;;;;;;;;363930;146;865204;-60
2021/12/22 04:34:16;;;;;;;10.75;5.28;;;;;;;;;;367526;146;865159;-61
2021/12/22 04:35:17;;;;;;;8.71;5.01;;;;;;;;;;363396;146;857387;-61
2021/12/22 04:36:20;;;;;;;10.08;4.73;;;;;;;;;;361924;146;866023;-60
2021/12/22 04:37:21;;;;;;;9.11;5.02;;;;;;;;;;368235;146;863926;-61
2021/12/22 04:38:23;;;;;;;9.63;4.96;;;;;;;;;;362945;145;865975;-61
2021/12/22 04:39:25;;;;;;;9.44;5.26;;;;;;;;;;361780;145;866962;-60
2021/12/22 04:40:27;;;;;;;9.35;4.76;;;;;;;;;;365286;147;864958;-61
2021/12/22 04:41:29;;;;;;;10.76;4.94;;;;;;;;;;363033;146;865116;-61
2021/12/22 04:42:30;;;;;;;11.27;5.13;;;;;;;;;;363142;146;865987;-59
2021/12/22 04:43:32;;;;;;;8.05;4.45;;;;;;;;;;364938;146;865163;-61
2021/12/22 04:44:34;;;;;;;9.86;4.88;;;;;;;;;;365533;146;866132;-61
2021/12/22 04:45:35;;;;;;;9.25;4.71;;;;;;;;;;361989;146;865818;-61
2021/12/22 04:46:37;;;;;;;6.19;3.64;;;;;;;;;;364496;146;857487;-60
2021/12/22 04:47:39;;;;;;;7.49;4.31;;;;;;;;;;360546;146;864944;-61
2021/12/22 04:48:40;;;;;;;8.76;5.05;;;;;;;;;;364564;145;864982;-60
2021/12/22 04:49:42;;;;;;;11.14;5.09;;;;;;;;;;365469;145;865000;-60
2021/12/22 04:50:43;;;;;;;14.12;5.30;;;;;;;;;;364467;146;866054;-60
2021/12/22 04:51:51;;;;;;;7.99;4.44;;;;;;;;;;364179;146;866102;-60
2021/12/22 04:52:57;;;;;;;10.08;4.63;;;;;;;;;;350567;151;865823;-61
2021/12/22 04:54:18;;;;;;;11.33;5.21;;;;;;;;;;363356;145;857829;-61
2021/12/22 04:55:04;;;;;;;9.87;4.04;;;;;;;;;;361231;146;857436;-61
2021/12/22 04:56:07;;;;;;;10.72;4.34;;;;;;;;;;363142;146;857458;-62
2021/12/22 04:57:08;;;;;;;7.85;4.96;;;;;;;;;;363664;145;857398;-62
2021/12/22 04:58:10;;;;;;;9.41;4.16;;;;;;;;;;364599;147;865552;-62
2021/12/22 04:59:11;;;;;;;8.69;5.29;;;;;;;;;;364262;145;865949;-62
2021/12/22 05:00:14;;;;;;;9.21;4.29;;;;;;;;;;362722;145;866854;-62
2021/12/22 05:01:15;;;;;;;14.89;5.72;;;;;;;;;;362983;147;857455;-62
2021/12/22 05:02:17;;;;;;;9.80;4.69;;;;;;;;;;364873;146;860153;-61
2021/12/22 05:03:18;;;;;;;8.91;4.58;;;;;;;;;;363202;145;865096;-62
2021/12/22 05:04:20;;;;;;;8.66;4.79;;;;;;;;;;364180;145;857331;-62
2021/12/22 05:05:21;;;;;;;11.50;5.38;;;;;;;;;;363566;146;865048;-62
2021/12/22 05:06:24;;;;;;;10.31;4.99;;;;;;;;;;362852;146;866983;-62
2021/12/22 05:07:25;;;;;;;10.32;5.27;;;;;;;;;;363606;146;858008;-62
2021/12/22 05:08:29;;;;;;;11.14;5.16;;;;;;;;;;365089;147;858360;-62
2021/12/22 05:09:31;;;;;;;10.38;5.28;;;;;;;;;;364340;146;865823;-61
2021/12/22 05:10:32;;;;;;;7.92;4.93;;;;;;;;;;366619;146;857875;-61
2021/12/22 05:11:34;;;;;;;9.67;4.80;;;;;;;;;;360212;146;857271;-61
2021/12/22 05:12:36;;;;;;;12.36;4.95;;;;;;;;;;363032;146;865113;-61
2021/12/22 05:13:37;;;;;;;8.29;4.63;;;;;;;;;;363842;146;865155;-62
2021/12/22 05:14:44;;;;;;;9.94;5.58;;;;;;;;;;365743;144;857375;-61
2021/12/22 05:15:45;;;;;;;9.44;4.94;;;;;;;;;;364411;144;858451;-62
2021/12/22 05:16:51;;;;;;;10.10;5.12;;;;;;;;;;360761;145;857570;-62
2021/12/22 05:19:11;;;;;;;10.47;5.31;;;;;;;;;;364636;147;857702;-61
2021/12/22 05:19:59;;;;;;;10.85;4.97;;;;;;;;;;360327;146;857567;-61
2021/12/22 05:21:00;;;;;;;11.11;5.46;;;;;;;;;;363544;145;865067;-62
2021/12/22 05:22:02;;;;;;;10.20;4.90;;;;;;;-147.14;100.00;112913.89;365341;145;866315;-62
2021/12/22 05:23:04;;;;;;;10.70;4.73;;;;;;;;;;365750;144;865096;-61
2021/12/22 05:24:06;;;;;;;9.40;4.59;;;;;;;;;;363212;145;860780;-61
2021/12/22 05:25:08;;;;;;;8.69;4.89;;;;;;;;;;363533;145;857392;-61
2021/12/22 05:26:10;;;;;;;11.89;5.58;;;;;;;;;;364240;146;864985;-62
2021/12/22 05:27:13;;;;;;;9.85;5.08;;;;;;;;;;362935;146;866249;-61
2021/12/22 05:28:15;;;;;;;9.59;5.87;;;;;;;;;;365052;145;865131;-61
2021/12/22 05:29:16;;;;;;;9.92;5.46;;;;;;;;;;363543;145;857508;-59
2021/12/22 05:30:18;;;;;;;8.75;5.41;;;;;;;;;;362961;144;857503;-62
2021/12/22 05:31:20;;;;;;;9.40;4.57;;;;;;;;;;364552;145;859469;-62
2021/12/22 05:32:25;;;;;;;10.27;5.40;;;;;;;;;;361743;145;867135;-63
2021/12/22 05:33:25;;;;;;;9.51;5.31;;;;;;;;;;364157;145;866673;-60
2021/12/22 05:34:27;;;;;;;8.65;5.19;;;;;;;;;;364479;145;865195;-62
2021/12/22 05:35:28;;;;;;;10.46;4.95;;;;;;;;;;365260;145;859432;-62
2021/12/22 05:36:30;;;;;;;11.25;5.72;;;;;;;;;;365117;145;858045;-62
2021/12/22 05:37:32;;;;;;;7.90;4.69;;;;;;;;;;364506;146;857554;-62
2021/12/22 05:38:33;;;;;;;11.55;5.23;;;;;;;;;;365191;145;864926;-61
2021/12/22 05:39:35;;;;;;;8.70;5.12;;;;;;;;;;365638;145;857460;-61
2021/12/22 05:40:37;;;;;;;8.85;4.81;;;;;;;;;;363838;145;865112;-60
2021/12/22 05:41:39;;;;;;;10.29;5.63;;;;;;;;;;363756;146;859130;-60
2021/12/22 05:42:42;;;;;;;9.75;5.06;;;;;;;;;;363203;146;865599;-61
2021/12/22 05:43:43;;;;;;;10.99;5.76;;;;;;;;;;364042;145;857290;-62
2021/12/22 05:44:45;;;;;;;9.67;4.61;;;;;;;;;;363953;145;858042;-61
2021/12/22 05:45:46;;;;;;;9.20;4.52;;;;;;;;;;363893;144;866745;-62
2021/12/22 05:46:48;;;;;;;11.82;5.65;;;;;;;;;;361098;147;859030;-62
2021/12/22 05:47:50;;;;;;;12.94;5.55;;;;;;;;;;361850;144;858136;-63
2021/12/22 05:48:53;;;;;;;9.36;5.03;;;;;;;;;;363556;145;865729;-61
2021/12/22 05:49:54;;;;;;;15.72;6.55;;;;;;;;;;366504;146;857696;-61
2021/12/22 05:51:01;;;;;;;12.79;7.09;;;;;;;;;;361118;147;864507;-61
2021/12/22 05:52:03;;;;;;;11.92;5.47;;;;;;;;;;365139;145;857404;-61
2021/12/22 05:53:05;;;;;;;10.87;5.02;;;;;;;;;;364863;145;857421;-61
2021/12/22 05:54:07;;;;;;;8.86;4.66;;;;;;;;;;363039;146;859097;-61
2021/12/22 05:55:08;;;;;;;10.67;5.37;;;;;;;;;;363266;145;857434;-61
2021/12/22 05:56:12;;;;;;;8.97;4.64;;;;;;;;;;364020;145;866466;-61
2021/12/22 05:57:13;;;;;;;10.14;4.69;;;;;;;;;;361852;146;857306;-61
2021/12/22 05:58:15;;;;;;;7.21;4.24;;;;;;;;;;365764;145;859039;-61
2021/12/22 05:59:16;;;;;;;9.26;4.91;;;;;;;;;;363946;145;865005;-61
2021/12/22 06:00:18;;;;;;;10.39;4.15;;;;;;;;;;364644;145;857509;-61
2021/12/22 06:01:20;;;;;;;6.85;4.04;;;;;;;;;;365080;147;858367;-61
2021/12/22 06:02:21;;;;;;;10.51;5.48;;;;;;;;;;362611;145;864994;-61
2021/12/22 06:03:23;;;;;;;10.11;3.66;;;;;;;;;;364826;145;865139;-60
2021/12/22 06:04:24;;;;;;;7.70;5.47;;;;;;;;;;362625;146;865326;-61
2021/12/22 06:05:26;;;;;;;14.13;5.86;;;;;;;;;;362631;145;865696;-60
2021/12/22 06:06:27;;;;;;;12.82;5.29;;;;;;;;;;366831;144;857384;-60
2021/12/22 06:07:49;;;;;;;9.91;5.25;;;;;;;;;;365296;143;865105;-60
2021/12/22 06:08:50;;;;;;;9.47;5.50;;;;;;;;;;360181;147;866883;-60
2021/12/22 06:09:52;;;;;;;15.25;6.26;;;;;;;;;;358262;147;857531;-61
2021/12/22 06:10:53;;;;;;;12.36;6.84;;;;;;;;;;357872;147;865393;-61
2021/12/22 06:11:55;;;;;;;8.29;5.09;;;;;;;;;;357838;150;864385;-61
2021/12/22 06:12:56;;;;;;;9.75;5.66;;;;;;;;;;358549;148;856649;-61
2021/12/22 06:13:59;;;;;;;16.71;6.61;;;;;;;;;;359154;147;864087;-60
2021/12/22 06:15:01;;;;;;;16.94;6.71;;;;;;;;;;358895;150;864069;-62
2021/12/22 06:16:02;;;;;;;16.30;7.81;;;;;;;;;;358173;147;863919;-60
2021/12/22 06:17:04;;;;;;;17.63;8.15;;;;;;;;;;359165;147;863907;-61
2021/12/22 06:18:06;;;;;;;14.16;6.85;;;;;;;;;;358149;148;863913;-60
2021/12/22 06:19:09;;;;;;;6.81;3.80;;;;;;;;;;358240;147;863935;-61
2021/12/22 06:20:11;;;;;;;7.82;4.29;;;;;;;;;;357514;147;856203;-61
2021/12/22 06:21:13;;;;;;;14.06;6.82;;;;;;;;;;358961;147;856740;-61
2021/12/22 06:22:15;;;;;;;17.29;7.92;;;;;;;;;;357693;148;864083;-61
2021/12/22 06:23:16;;;;;;;15.05;7.50;;;;;;;;;;358452;148;856944;-61
2021/12/22 06:24:18;;;;;;;15.05;7.67;;;;;;;;;;359045;147;864491;-61